Time;durP1;ratioP1;P1;durP2;ratioP2;P2;SDS_P1;SDS_P2;PMS_P1;PMS_P2;Temp;Humidity;BMP_temperature;BMP_pressure;BME280_temperature;BME280_humidity;BME280_pressure;Samples;Min_cycle;Max_cycle;Signal;HPM_P1;HPM_P2
2022/07/30 00:01:07;;;;;;;8.40;2.90;;;;;;;12.92;86.51;100429.65;104775;1271;68584;-75
2022/07/30 00:03:55;;;;;;;8.70;3.00;;;;;;;12.87;86.35;100437.86;105011;1271;74431;-75
2022/07/30 00:06:43;;;;;;;7.80;2.70;;;;;;;12.81;86.26;100434.23;104874;1271;60818;-73
2022/07/30 00:09:31;;;;;;;7.90;2.60;;;;;;;12.78;86.36;100435.19;105175;1271;60560;-75
2022/07/30 00:12:22;;;;;;;8.60;2.80;;;;;;;12.74;86.64;100433.73;105154;1271;71921;-75
2022/07/30 00:15:10;;;;;;;7.30;2.90;;;;;;;12.71;86.89;100429.35;105365;1271;69666;-74
2022/07/30 00:17:58;;;;;;;7.50;2.80;;;;;;;12.71;87.28;100428.98;104990;1271;72714;-72
2022/07/30 00:20:48;;;;;;;7.70;3.10;;;;;;;12.70;87.08;100428.19;105010;1271;59545;-73
2022/07/30 00:23:36;;;;;;;8.60;2.80;;;;;;;12.69;87.30;100428.96;105020;1271;59676;-75
2022/07/30 00:26:24;;;;;;;6.70;2.40;;;;;;;12.68;87.48;100428.56;104964;1273;73260;-73
2022/07/30 00:29:13;;;;;;;7.50;2.60;;;;;;;12.60;87.56;100417.77;104902;1271;67993;-75
2022/07/30 00:32:01;;;;;;;7.90;2.40;;;;;;;12.60;87.56;100424.55;105133;1271;73415;-76
2022/07/30 00:34:50;;;;;;;8.20;2.90;;;;;;;12.56;87.68;100424.86;105213;1272;60081;-75
2022/07/30 00:37:38;;;;;;;7.10;2.70;;;;;;;12.54;88.13;100426.80;104986;1271;62067;-75
2022/07/30 00:40:26;;;;;;;6.90;2.20;;;;;;;12.53;88.28;100423.84;105017;1271;73281;-74
2022/07/30 00:43:16;;;;;;;7.30;2.10;;;;;;;12.52;88.25;100419.67;104873;1274;69005;-74
2022/07/30 00:46:04;;;;;;;6.30;2.20;;;;;;;12.51;88.53;100420.79;105131;1271;74402;-74
2022/07/30 00:48:53;;;;;;;7.30;3.00;;;;;;;12.49;88.24;100425.05;104980;1271;60399;-73
2022/07/30 00:51:41;;;;;;;7.90;2.30;;;;;;;12.50;88.78;100420.59;105017;1271;60996;-74
2022/07/30 00:54:29;;;;;;;7.00;2.10;;;;;;;12.48;88.60;100424.48;104963;1274;73027;-72
2022/07/30 00:57:17;;;;;;;6.60;1.90;;;;;;;12.44;88.83;100420.26;105059;1271;68821;-73
2022/07/30 01:00:10;;;;;;;6.50;2.20;;;;;;;12.43;88.80;100417.13;105064;1271;73986;-74
2022/07/30 01:02:57;;;;;;;7.10;1.80;;;;;;;12.41;88.94;100418.42;104853;1271;59669;-74
2022/07/30 01:05:45;;;;;;;6.60;2.00;;;;;;;12.38;89.15;100416.88;104946;1271;60398;-74
2022/07/30 01:08:33;;;;;;;5.80;1.80;;;;;;;12.36;89.27;100413.80;104972;1271;73998;-75
2022/07/30 01:11:34;;;;;;;5.40;1.70;;;;;;;12.34;89.39;100408.27;104957;1271;67867;-74
2022/07/30 01:14:24;;;;;;;6.50;1.70;;;;;;;12.33;89.51;100407.66;104872;1275;73006;-73
2022/07/30 01:17:12;;;;;;;6.30;2.00;;;;;;;12.34;89.26;100406.04;104971;1274;59874;-74
2022/07/30 01:20:30;;;;;;;6.10;1.80;;;;;;;12.32;89.45;100403.48;104896;1274;62033;-73
2022/07/30 01:23:36;;;;;;;6.40;1.40;;;;;;;12.30;89.58;100398.69;104861;1274;73308;-74
2022/07/30 01:26:28;;;;;;;5.70;1.70;;;;;;;12.30;89.46;100396.48;105158;1274;69983;-73
2022/07/30 01:29:17;;;;;;;8.40;1.90;;;;;;;12.30;89.36;100392.43;105058;1274;73423;-74
2022/07/30 01:32:08;;;;;;;7.60;1.70;;;;;;;12.30;89.23;100389.95;104804;1274;59643;-74
2022/07/30 01:34:58;;;;;;;5.80;1.80;;;;;;;12.25;89.08;100384.08;105000;1274;61975;-73
2022/07/30 01:37:48;;;;;;;7.20;1.80;;;;;;;12.20;89.12;100378.41;105109;1274;73996;-72
2022/07/30 01:40:38;;;;;;;5.90;1.60;;;;;;;12.19;89.60;100374.79;105063;1273;67509;-73
2022/07/30 01:43:29;;;;;;;5.50;1.70;;;;;;;12.18;89.55;100370.05;104958;1273;72843;-72
2022/07/30 01:46:18;;;;;;;6.80;1.80;;;;;;;12.17;89.42;100363.23;104788;1274;59880;-73
2022/07/30 01:49:10;;;;;;;5.80;1.80;;;;;;;12.15;89.66;100359.46;104685;1273;60737;-74
2022/07/30 01:52:03;;;;;;;5.40;1.50;;;;;;;12.14;89.70;100358.61;105096;1274;72171;-73
2022/07/30 01:54:55;;;;;;;5.60;1.50;;;;;;;12.13;89.77;100357.30;105156;1273;68059;-73
2022/07/30 01:57:47;;;;;;;5.80;1.70;;;;;;;12.13;89.84;100358.58;104755;1274;72953;-74
2022/07/30 02:00:39;;;;;;;6.00;1.60;;;;;;;12.11;89.93;100356.22;104787;1273;59665;-73
2022/07/30 02:03:30;;;;;;;5.90;1.60;;;;;;;12.07;90.00;100354.52;105016;1273;60509;-74
2022/07/30 02:06:31;;;;;;;6.10;1.90;;;;;;;12.04;90.26;100352.33;105053;1274;74641;-73
2022/07/30 02:09:27;;;;;;;5.30;1.50;;;;;;;12.00;90.40;100352.64;104938;1273;67633;-73
2022/07/30 02:12:28;;;;;;;6.10;1.80;;;;;;;11.95;90.47;100349.64;104960;1274;74433;-74
2022/07/30 02:15:37;;;;;;;5.80;2.00;;;;;;;11.91;90.71;100348.64;104898;1273;59779;-73
2022/07/30 02:18:47;;;;;;;6.30;1.70;;;;;;;11.90;91.43;100348.24;105012;1271;60987;-74
2022/07/30 02:21:55;;;;;;;6.50;1.70;;;;;;;11.88;91.64;100338.59;105139;1272;73393;-73
2022/07/30 02:24:46;;;;;;;5.80;1.60;;;;;;;11.87;91.64;100335.79;105175;1271;68456;-72
2022/07/30 02:27:42;;;;;;;5.80;1.80;;;;;;;11.86;91.52;100333.21;104839;1271;73421;-74
2022/07/30 02:30:33;;;;;;;5.60;1.80;;;;;;;11.88;91.42;100330.27;104858;1271;61277;-74
2022/07/30 02:33:26;;;;;;;5.90;1.70;;;;;;;11.87;91.41;100325.70;104858;1273;59836;-73
2022/07/30 02:36:15;;;;;;;5.80;1.60;;;;;;;11.87;91.44;100323.78;104844;1274;73905;-74
2022/07/30 02:39:04;;;;;;;6.10;1.70;;;;;;;11.83;91.11;100317.13;105030;1271;66973;-74
2022/07/30 02:41:55;;;;;;;5.90;1.80;;;;;;;11.80;91.96;100313.43;105164;1272;72900;-73
2022/07/30 02:44:44;;;;;;;6.50;1.80;;;;;;;11.78;92.03;100315.60;105085;1271;59872;-73
2022/07/30 02:47:35;;;;;;;7.20;1.50;;;;;;;11.74;92.12;100311.80;104823;1274;60633;-73
2022/07/30 02:50:27;;;;;;;5.60;1.70;;;;;;;11.72;92.48;100310.37;104811;1274;73832;-74
2022/07/30 02:53:18;;;;;;;6.10;1.50;;;;;;;11.71;92.47;100313.06;104664;1274;69677;-73
2022/07/30 02:56:08;;;;;;;5.00;1.40;;;;;;;11.71;92.35;100314.52;104746;1275;73764;-73
2022/07/30 02:59:00;;;;;;;6.20;1.70;;;;;;;11.69;92.37;100319.29;104985;1274;59799;-73
2022/07/30 03:01:50;;;;;;;6.90;1.60;;;;;;;11.69;92.20;100318.02;104735;1274;61076;-73
2022/07/30 03:04:39;;;;;;;6.60;1.70;;;;;;;11.70;92.58;100318.53;104896;1274;74875;-73
2022/07/30 03:07:30;;;;;;;5.90;1.60;;;;;;;11.72;93.29;100320.82;105257;1274;69077;-74
2022/07/30 03:10:19;;;;;;;6.10;1.60;;;;;;;11.76;93.28;100316.98;105575;1274;72878;-73
2022/07/30 03:13:09;;;;;;;5.40;1.60;;;;;;;11.80;93.18;100318.95;105107;1274;59941;-75
2022/07/30 03:15:58;;;;;;;5.90;1.80;;;;;;;11.84;93.31;100320.04;104925;1274;60494;-76
2022/07/30 03:18:47;;;;;;;6.80;1.60;;;;;;;11.85;92.59;100321.56;104850;1277;75054;-77
2022/07/30 03:21:40;;;;;;;6.30;1.90;;;;;;;11.84;92.69;100321.14;104949;1274;68653;-76
2022/07/30 03:24:31;;;;;;;6.80;1.60;;;;;;;11.82;92.52;100320.02;104922;1275;71614;-75
2022/07/30 03:27:21;;;;;;;6.60;2.00;;;;;;;11.82;92.74;100315.27;105124;1274;59975;-74
2022/07/30 03:30:12;;;;;;;5.50;1.50;;;;;;;11.82;93.19;100321.10;104998;1273;61131;-75
2022/07/30 03:33:01;;;;;;;5.60;1.60;;;;;;;11.85;93.15;100326.58;105112;1275;74260;-75
2022/07/30 03:35:50;;;;;;;5.40;1.60;;;;;;;11.89;93.86;100329.61;104975;1274;69445;-75
2022/07/30 03:38:41;;;;;;;5.40;1.50;;;;;;;11.96;95.04;100331.46;104954;1274;74739;-75
2022/07/30 03:41:31;;;;;;;5.50;1.70;;;;;;;12.02;95.51;100330.29;105181;1273;61008;-74
2022/07/30 03:44:21;;;;;;;6.20;1.70;;;;;;;12.06;95.74;100335.93;105001;1273;60667;-76
2022/07/30 03:47:10;;;;;;;7.00;1.80;;;;;;;12.11;95.81;100340.94;105294;1273;73252;-77
2022/07/30 03:50:03;;;;;;;6.50;1.70;;;;;;;12.17;95.52;100343.98;105176;1273;69639;-75
2022/07/30 03:52:54;;;;;;;7.30;1.70;;;;;;;12.22;95.13;100345.38;105014;1273;71774;-76
2022/07/30 03:55:42;;;;;;;6.60;1.80;;;;;;;12.28;94.90;100349.20;104880;1274;59664;-75
2022/07/30 03:59:04;;;;;;;6.00;1.70;;;;;;;12.35;95.29;100351.45;105367;1273;60597;-75
2022/07/30 04:01:53;;;;;;;5.60;1.60;;;;;;;12.41;95.33;100354.34;105237;1273;73325;-76
2022/07/30 04:04:57;;;;;;;6.40;1.80;;;;;;;12.48;95.38;100349.20;105118;1273;69667;-76
2022/07/30 04:07:46;;;;;;;4.80;1.40;;;;;;;12.55;95.57;100348.61;105022;1274;74443;-76
2022/07/30 04:10:35;;;;;;;5.50;1.50;;;;;;;12.63;95.82;100353.98;105251;1273;60184;-75
2022/07/30 04:13:40;;;;;;;6.10;1.70;;;;;;;12.77;96.01;100341.78;104941;1273;60526;-76
2022/07/30 04:17:00;;;;;;;7.30;1.60;;;;;;;12.87;95.79;100331.01;105019;1273;72237;-76
2022/07/30 04:19:54;;;;;;;5.70;1.80;;;;;;;13.00;95.21;100335.11;104979;1274;68637;-73
2022/07/30 04:22:43;;;;;;;6.20;1.70;;;;;;;13.11;94.20;100339.69;105009;1274;74457;-76
2022/07/30 04:25:32;;;;;;;8.00;1.90;;;;;;;13.21;93.57;100335.88;104992;1273;59730;-75
2022/07/30 04:28:21;;;;;;;6.70;1.70;;;;;;;13.31;93.36;100334.84;105012;1273;61376;-75
2022/07/30 04:31:10;;;;;;;6.40;1.60;;;;;;;13.41;93.53;100332.17;105122;1273;72088;-73
2022/07/30 04:33:58;;;;;;;7.50;1.60;;;;;;;13.53;92.97;100333.38;105233;1273;69097;-75
2022/07/30 04:36:57;;;;;;;5.90;2.10;;;;;;;13.66;92.94;100329.73;105019;1273;72621;-74
2022/07/30 04:39:52;;;;;;;7.50;2.10;;;;;;;13.80;93.03;100323.02;104973;1273;59725;-73
2022/07/30 04:42:41;;;;;;;9.40;3.00;;;;;;;13.95;92.59;100322.63;104951;1273;60576;-75
2022/07/30 04:45:30;;;;;;;11.80;2.80;;;;;;;14.10;92.18;100323.41;105089;1273;74716;-76
2022/07/30 04:48:21;;;;;;;32.20;19.50;;;;;;;14.28;91.84;100323.27;105018;1273;69569;-74
2022/07/30 04:51:35;;;;;;;9.10;3.00;;;;;;;14.51;91.33;100318.13;105255;1273;72884;-77
2022/07/30 04:54:25;;;;;;;11.90;3.90;;;;;;;14.74;90.61;100317.39;105093;1273;59644;-78
2022/07/30 04:57:15;;;;;;;9.70;2.90;;;;;;;14.98;89.88;100312.20;104950;1275;59684;-76
2022/07/30 05:00:06;;;;;;;25.40;16.20;;;;;;;15.22;89.17;100311.24;104975;1273;73425;-76
2022/07/30 05:02:56;;;;;;;9.10;3.80;;;;;;;15.47;88.02;100310.27;105063;1274;66824;-77
2022/07/30 05:05:47;;;;;;;11.10;4.40;;;;;;;15.76;87.00;100311.35;105075;1274;74417;-77
2022/07/30 05:08:35;;;;;;;8.00;3.40;;;;;;;16.00;85.53;100310.53;104940;1273;59774;-77
2022/07/30 05:11:25;;;;;;;7.50;2.10;;;;;;;16.19;84.63;100310.79;104887;1273;59620;-76
2022/07/30 05:14:13;;;;;;;9.20;2.70;;;;;;;16.39;83.56;100310.27;105297;1268;72587;-79
2022/07/30 05:17:02;;;;;;;5.60;1.50;;;;;;;16.65;82.24;100316.00;104974;1271;66804;-77
2022/07/30 05:19:51;;;;;;;6.70;1.60;;;;;;;16.92;80.67;100311.15;105091;1271;74369;-76
2022/07/30 05:22:40;;;;;;;6.10;1.90;;;;;;;17.56;78.78;100311.54;104926;1273;61227;-77
2022/07/30 05:25:38;;;;;;;6.50;2.00;;;;;;;19.12;74.24;100304.83;105264;1271;270802;-76
2022/07/30 05:28:49;;;;;;;7.00;2.50;;;;;;;21.06;66.20;100299.27;105559;1271;72125;-77
2022/07/30 05:31:47;;;;;;;6.10;1.60;;;;;;;22.69;60.76;100294.33;105463;1271;67225;-78
2022/07/30 05:34:35;;;;;;;7.60;1.50;;;;;;;24.00;55.08;100289.68;105303;1271;72926;-76
2022/07/30 05:37:25;;;;;;;5.40;1.20;;;;;;;25.30;52.03;100289.46;105174;1271;59662;-77
2022/07/30 05:40:13;;;;;;;6.50;1.60;;;;;;;26.42;47.45;100285.16;105346;1271;60937;-77
2022/07/30 05:43:13;;;;;;;5.60;1.20;;;;;;;27.24;45.18;100258.75;105552;1271;72041;-76
2022/07/30 05:46:01;;;;;;;4.90;1.00;;;;;;;28.25;43.11;100274.93;105626;1271;66883;-76
2022/07/30 05:48:50;;;;;;;6.20;1.20;;;;;;;28.95;40.70;100271.10;105559;1272;73798;-77
2022/07/30 05:51:38;;;;;;;5.50;1.10;;;;;;;29.53;38.55;100265.96;106192;1271;59938;-75
2022/07/30 05:54:26;;;;;;;5.40;0.90;;;;;;;30.02;37.08;100264.21;105610;1271;60840;-77
2022/07/30 05:57:23;;;;;;;5.40;0.90;;;;;;;30.47;35.59;100260.77;106054;1270;73138;-78
2022/07/30 06:00:13;;;;;;;4.40;0.80;;;;;;;30.70;34.77;100268.10;106323;1271;66797;-79
2022/07/30 06:03:04;;;;;;;5.20;1.00;;;;;;;30.79;34.04;100264.89;105840;1271;73418;-78
2022/07/30 06:06:11;;;;;;;4.30;0.80;;;;;;;30.38;34.33;100262.40;106038;1271;59686;-77
2022/07/30 06:08:59;;;;;;;5.50;1.10;;;;;;;30.61;34.10;100266.90;105892;1271;62607;-79
2022/07/30 06:11:48;;;;;;;5.00;1.10;;;;;;;31.30;33.41;100262.86;105524;1273;73685;-79
2022/07/30 06:14:37;;;;;;;5.60;1.40;;;;;;;31.60;32.03;100260.62;105615;1271;68618;-79
2022/07/30 06:17:26;;;;;;;5.10;0.80;;;;;;;31.52;31.71;100261.05;106034;1271;72912;-77
2022/07/30 06:20:40;;;;;;;4.60;0.80;;;;;;;31.30;32.11;100259.77;106902;1271;59327;-78
2022/07/30 06:23:40;;;;;;;4.30;0.70;;;;;;;31.53;31.60;100255.42;106656;1273;60782;-78
2022/07/30 06:26:47;;;;;;;5.20;1.00;;;;;;;31.65;31.12;100251.39;106527;1271;73333;-79
2022/07/30 06:29:39;;;;;;;5.00;1.00;;;;;;;31.83;30.34;100247.88;105738;1273;66950;-78
2022/07/30 06:32:28;;;;;;;5.20;1.00;;;;;;;31.87;30.05;100246.15;106241;1271;72843;-79
2022/07/30 06:35:16;;;;;;;4.10;0.80;;;;;;;31.78;30.63;100248.06;107035;1271;59778;-79
2022/07/30 06:38:04;;;;;;;5.20;0.90;;;;;;;31.79;30.33;100242.83;106649;1273;59745;-80
2022/07/30 06:41:04;;;;;;;4.10;0.80;;;;;;;31.85;30.35;100244.44;106335;1271;74769;-80
2022/07/30 06:44:21;;;;;;;4.50;0.80;;;;;;;32.11;29.83;100247.43;106666;1272;66841;-79
2022/07/30 06:47:28;;;;;;;6.90;3.20;;;;;;;32.30;29.02;100247.27;106690;1271;71686;-80
2022/07/30 06:50:19;;;;;;;5.90;1.90;;;;;;;32.17;28.59;100249.55;105572;1271;60314;-82
2022/07/30 06:53:07;;;;;;;4.80;1.60;;;;;;;31.87;28.62;100250.61;105325;1271;59644;-77
2022/07/30 06:56:14;;;;;;;6.10;1.30;;;;;;;31.51;29.00;100249.73;106609;1271;72653;-78
2022/07/30 06:59:13;;;;;;;5.20;1.00;;;;;;;31.28;29.16;100252.16;105996;1271;66869;-79
2022/07/30 07:02:24;;;;;;;5.10;1.00;;;;;;;31.57;29.54;100253.36;106106;1273;71532;-79
2022/07/30 07:05:27;;;;;;;6.10;1.40;;;;;;;31.63;29.50;100254.29;105736;1271;59689;-79
2022/07/30 07:08:17;;;;;;;4.80;0.80;;;;;;;31.43;29.80;100255.23;106437;1271;61111;-78
2022/07/30 07:11:08;;;;;;;4.40;0.80;;;;;;;31.36;29.45;100254.65;106223;1271;73314;-80
2022/07/30 07:14:06;;;;;;;4.20;0.80;;;;;;;31.40;29.16;100254.31;106157;1271;68056;-76
2022/07/30 07:16:54;;;;;;;4.30;0.70;;;;;;;31.66;29.07;100250.89;105733;1273;72851;-76
2022/07/30 07:20:06;;;;;;;4.50;0.80;;;;;;;32.37;28.49;100248.56;105661;1271;59704;-77
2022/07/30 07:23:04;;;;;;;5.40;0.90;;;;;;;32.65;28.10;100249.59;105598;1271;62388;-75
2022/07/30 07:26:00;;;;;;;4.60;0.90;;;;;;;33.14;27.37;100249.16;105471;1271;73262;-76
2022/07/30 07:28:49;;;;;;;4.60;0.70;;;;;;;33.33;26.28;100246.45;105622;1271;68934;-76
2022/07/30 07:31:37;;;;;;;5.40;0.80;;;;;;;33.32;26.64;100244.58;105060;1273;72885;-77
2022/07/30 07:34:45;;;;;;;5.20;0.90;;;;;;;33.51;26.70;100239.87;105456;1271;59605;-74
2022/07/30 07:37:35;;;;;;;5.90;0.90;;;;;;;33.45;26.15;100239.55;105721;1271;61107;-78
2022/07/30 07:40:23;;;;;;;4.90;0.70;;;;;;;33.61;25.77;100240.19;105571;1271;71083;-76
2022/07/30 07:43:12;;;;;;;5.00;0.90;;;;;;;33.86;25.61;100231.93;105124;1271;68197;-74
2022/07/30 07:46:01;;;;;;;4.10;0.80;;;;;;;33.95;24.82;100234.00;105134;1271;72833;-77
2022/07/30 07:48:52;;;;;;;5.10;1.00;;;;;;;34.00;24.98;100233.75;105179;1271;59705;-76
2022/07/30 07:52:06;;;;;;;6.40;0.80;;;;;;;34.00;24.81;100239.27;105358;1271;59507;-75
2022/07/30 07:54:54;;;;;;;5.20;1.00;;;;;;;34.10;24.90;100236.15;105161;1271;72052;-74
2022/07/30 07:57:45;;;;;;;5.30;0.80;;;;;;;34.28;24.81;100238.67;105307;1271;66952;-76
2022/07/30 08:00:34;;;;;;;11.00;0.90;;;;;;;34.60;24.12;100232.16;105023;1271;71536;-74
2022/07/30 08:03:22;;;;;;;6.50;0.90;;;;;;;34.69;24.03;100229.11;105175;1271;59560;-75
2022/07/30 08:06:11;;;;;;;7.00;0.90;;;;;;;34.78;24.07;100226.70;104955;1273;61522;-74
2022/07/30 08:09:25;;;;;;;5.20;0.90;;;;;;;34.67;22.91;100223.21;105175;1271;72397;-74
2022/07/30 08:12:51;;;;;;;5.00;0.60;;;;;;;34.81;23.08;100222.34;105144;1271;67789;-75
2022/07/30 08:16:08;;;;;;;5.30;0.90;;;;;;;34.94;23.40;100219.02;105414;1273;73154;-76
2022/07/30 08:19:11;;;;;;;4.40;0.70;;;;;;;34.81;23.56;100219.56;105409;1271;59736;-76
2022/07/30 08:22:02;;;;;;;5.90;0.80;;;;;;;34.89;23.05;100215.33;105176;1271;61021;-71
2022/07/30 08:24:50;;;;;;;5.30;0.80;;;;;;;34.68;22.30;100211.44;105019;1273;74370;-74
2022/07/30 08:27:38;;;;;;;6.10;0.90;;;;;;;34.58;22.67;100213.75;105148;1271;69611;-73
2022/07/30 08:30:26;;;;;;;7.10;0.80;;;;;;;34.61;22.60;100212.05;105180;1271;72928;-75
2022/07/30 08:33:16;;;;;;;4.80;0.60;;;;;;;34.71;22.35;100210.55;105261;1271;59870;-74
2022/07/30 08:36:05;;;;;;;7.10;1.00;;;;;;;34.70;22.43;100206.40;105404;1271;61792;-76
2022/07/30 08:38:58;;;;;;;5.40;0.80;;;;;;;34.89;22.97;100203.27;105407;1271;73195;-73
2022/07/30 08:41:47;;;;;;;5.20;0.80;;;;;;;35.01;22.98;100203.73;105501;1271;67494;-75
2022/07/30 08:44:43;;;;;;;7.20;1.10;;;;;;;35.07;22.94;100202.45;105457;1271;72705;-75
2022/07/30 08:47:33;;;;;;;6.30;1.00;;;;;;;34.94;23.34;100202.59;105170;1271;59698;-77
2022/07/30 08:50:30;;;;;;;6.90;0.90;;;;;;;34.99;23.06;100194.89;105295;1273;60961;-73
2022/07/30 08:53:48;;;;;;;5.50;0.80;;;;;;;35.14;22.91;100194.70;105153;1273;71438;-74
2022/07/30 08:56:37;;;;;;;5.50;0.90;;;;;;;35.54;22.52;100194.14;104986;1273;68241;-75
2022/07/30 08:59:26;;;;;;;5.40;0.90;;;;;;;35.94;21.89;100194.20;105185;1271;74362;-75
2022/07/30 09:02:37;;;;;;;5.90;1.10;;;;;;;35.73;21.90;100189.46;105192;1271;59679;-74
2022/07/30 09:05:25;;;;;;;5.30;0.90;;;;;;;35.94;21.75;100195.14;105376;1271;59698;-74
2022/07/30 09:08:13;;;;;;;5.00;1.00;;;;;;;36.01;21.38;100193.27;105216;1271;73242;-76
2022/07/30 09:11:06;;;;;;;4.70;0.90;;;;;;;35.89;21.37;100191.73;105218;1273;68076;-75
2022/07/30 09:14:07;;;;;;;6.40;0.80;;;;;;;36.03;21.23;100188.55;105293;1273;70327;-75
2022/07/30 09:16:59;;;;;;;5.00;1.10;;;;;;;36.34;20.39;100190.11;105108;1271;59784;-77
2022/07/30 09:20:04;;;;;;;5.30;0.90;;;;;;;36.56;19.87;100189.84;104825;1273;59634;-76
2022/07/30 09:22:57;;;;;;;4.10;0.80;;;;;;;36.39;19.73;100184.98;105467;1271;73208;-77
2022/07/30 09:26:17;;;;;;;5.70;0.80;;;;;;;36.22;19.80;100187.66;105166;1271;68394;-74
2022/07/30 09:29:17;;;;;;;4.10;0.70;;;;;;;36.03;19.94;100189.60;105112;1271;71545;-74
2022/07/30 09:32:24;;;;;;;5.20;0.80;;;;;;;35.91;19.71;100183.20;105127;1271;59685;-73
2022/07/30 09:35:31;;;;;;;5.50;1.00;;;;;;;35.98;19.64;100184.86;105161;1271;59528;-76
2022/07/30 09:38:42;;;;;;;6.90;1.00;;;;;;;35.97;19.74;100181.23;105341;1271;71712;-75
2022/07/30 09:41:50;;;;;;;5.80;1.70;;;;;;;36.27;20.20;100182.25;105000;1273;66821;-74
2022/07/30 09:44:40;;;;;;;5.40;0.80;;;;;;;36.47;19.65;100177.17;105041;1274;72867;-75
2022/07/30 09:47:43;;;;;;;5.60;0.80;;;;;;;36.37;19.47;100175.47;105009;1271;59678;-74
2022/07/30 09:50:31;;;;;;;6.30;1.70;;;;;;;36.34;18.71;100178.49;105121;1271;60342;-74
2022/07/30 09:53:23;;;;;;;5.10;1.10;;;;;;;36.32;19.06;100174.84;105166;1271;73248;-73
2022/07/30 09:56:29;;;;;;;6.00;0.80;;;;;;;36.43;19.00;100171.90;105076;1271;68139;-76
2022/07/30 09:59:27;;;;;;;4.70;0.80;;;;;;;36.35;18.52;100172.06;104964;1271;72869;-75
2022/07/30 10:02:32;;;;;;;5.20;1.20;;;;;;;36.25;19.42;100170.08;105072;1271;59662;-77
2022/07/30 10:05:50;;;;;;;4.10;0.80;;;;;;;36.13;18.80;100169.15;105344;1271;59554;-76
2022/07/30 10:08:42;;;;;;;4.50;0.90;;;;;;;35.75;19.45;100171.04;105095;1273;71744;-75
2022/07/30 10:11:34;;;;;;;4.80;0.80;;;;;;;35.31;19.90;100174.91;105038;1271;70021;-75
2022/07/30 10:14:27;;;;;;;4.10;0.80;;;;;;;35.35;20.42;100176.63;105402;1273;72872;-77
2022/07/30 10:17:21;;;;;;;5.70;0.80;;;;;;;35.45;20.51;100180.29;105096;1271;59755;-78
2022/07/30 10:20:29;;;;;;;3.80;0.80;;;;;;;35.53;20.62;100174.64;105413;1272;60571;-80
2022/07/30 10:23:58;;;;;;;6.00;0.90;;;;;;;35.64;20.18;100173.13;104997;1271;73244;-77
2022/07/30 10:27:07;;;;;;;5.00;0.70;;;;;;;35.77;20.28;100177.33;105213;1273;68544;-79
2022/07/30 10:30:11;;;;;;;5.60;0.80;;;;;;;36.08;19.63;100175.05;105340;1271;74440;-76
2022/07/30 10:33:00;;;;;;;11.50;7.50;;;;;;;35.95;19.56;100174.86;105195;1271;59657;-77
2022/07/30 10:35:49;;;;;;;5.60;1.00;;;;;;;35.98;19.68;100176.67;104973;1271;60342;-78
2022/07/30 10:38:42;;;;;;;5.90;2.20;;;;;;;36.08;19.78;100172.39;105275;1271;73277;-75
2022/07/30 10:41:56;;;;;;;5.20;1.10;;;;;;;36.31;20.19;100169.70;105064;1271;66793;-76
2022/07/30 10:45:21;;;;;;;6.90;1.10;;;;;;;36.33;19.69;100172.95;105332;1271;73209;-74
2022/07/30 10:48:11;;;;;;;3.40;0.60;;;;;;;36.54;19.20;100170.30;105209;1271;59752;-75
2022/07/30 10:51:01;;;;;;;4.20;0.70;;;;;;;36.34;19.17;100168.46;105051;1271;59646;-74
2022/07/30 10:53:50;;;;;;;4.10;0.80;;;;;;;36.30;18.95;100169.48;104901;1274;73675;-75
2022/07/30 10:56:38;;;;;;;5.00;0.80;;;;;;;36.45;19.13;100166.88;105164;1271;69616;-74
2022/07/30 10:59:27;;;;;;;5.10;0.80;;;;;;;36.85;18.97;100164.43;105055;1271;72080;-73
2022/07/30 11:02:20;;;;;;;6.00;0.90;;;;;;;37.29;18.22;100161.02;105060;1271;59897;-74
2022/07/30 11:05:19;;;;;;;5.20;0.90;;;;;;;37.44;18.03;100164.15;105055;1271;60443;-75
2022/07/30 11:08:35;;;;;;;5.00;0.80;;;;;;;37.54;18.00;100164.04;105091;1271;73140;-73
2022/07/30 11:11:23;;;;;;;3.70;0.70;;;;;;;37.71;18.28;100159.27;105325;1271;66801;-74
2022/07/30 11:14:47;;;;;;;4.70;0.80;;;;;;;37.66;18.18;100160.34;105301;1271;73443;-76
2022/07/30 11:18:07;;;;;;;5.60;0.90;;;;;;;37.37;18.47;100158.75;105141;1271;59649;-77
2022/07/30 11:21:19;;;;;;;5.00;0.80;;;;;;;36.80;19.87;100160.52;105269;1271;61084;-75
2022/07/30 11:24:55;;;;;;;4.90;0.70;;;;;;;36.43;19.52;100155.53;105168;1273;74777;-76
2022/07/30 11:27:46;;;;;;;4.90;0.90;;;;;;;35.67;19.68;100150.14;105117;1271;66973;-76
2022/07/30 11:30:35;;;;;;;4.10;0.70;;;;;;;34.91;20.58;100152.05;105331;1271;72901;-79
2022/07/30 11:33:24;;;;;;;5.40;0.70;;;;;;;34.38;21.37;100155.17;105719;1272;59678;-81
2022/07/30 11:36:20;;;;;;;6.40;0.80;;;;;;;33.84;21.76;100153.16;105306;1272;59516;-83
2022/07/30 11:39:11;;;;;;;5.60;0.90;;;;;;;33.46;22.40;100148.23;105270;1272;72028;-82
2022/07/30 11:42:36;;;;;;;5.10;0.90;;;;;;;33.02;23.91;100147.77;105537;1271;66672;-79
2022/07/30 11:45:28;;;;;;;4.00;0.70;;;;;;;32.20;23.73;100146.90;105251;1273;72980;-79
2022/07/30 11:48:19;;;;;;;4.80;0.80;;;;;;;31.48;25.04;100150.11;105245;1271;59649;-78
2022/07/30 11:51:08;;;;;;;5.50;1.20;;;;;;;30.91;25.30;100142.69;105323;1271;60333;-76
2022/07/30 11:54:07;;;;;;;5.70;1.30;;;;;;;30.50;26.33;100150.40;105385;1271;72976;-75
2022/07/30 11:56:56;;;;;;;6.10;1.60;;;;;;;30.06;26.41;100157.02;105360;1271;66486;-76
2022/07/30 11:59:53;;;;;;;8.00;4.30;;;;;;;29.27;27.75;100156.95;105243;1271;72535;-75
2022/07/30 12:02:41;;;;;;;5.20;1.10;;;;;;;28.77;28.08;100153.73;105146;1271;59695;-78
2022/07/30 12:05:32;;;;;;;7.30;1.30;;;;;;;28.31;28.58;100152.96;105133;1271;62152;-75
2022/07/30 12:08:22;;;;;;;5.50;1.00;;;;;;;27.94;29.07;100153.96;105173;1273;74731;-75
2022/07/30 12:11:23;;;;;;;7.10;1.60;;;;;;;27.59;29.32;100151.96;105259;1271;66534;-78
2022/07/30 12:14:12;;;;;;;6.90;1.60;;;;;;;27.27;29.42;100151.73;105172;1271;72880;-76
2022/07/30 12:17:00;;;;;;;5.30;0.90;;;;;;;27.00;30.59;100151.27;105351;1271;59713;-78
2022/07/30 12:19:50;;;;;;;5.70;1.30;;;;;;;26.74;30.31;100146.38;105319;1271;59669;-77
2022/07/30 12:22:38;;;;;;;6.10;1.50;;;;;;;26.47;30.51;100143.89;105446;1271;72457;-76
2022/07/30 12:25:26;;;;;;;5.80;1.60;;;;;;;26.20;30.75;100142.46;105154;1271;67117;-77
2022/07/30 12:28:28;;;;;;;7.50;2.20;;;;;;;26.06;31.48;100139.38;105113;1271;73856;-78
2022/07/30 12:31:17;;;;;;;4.60;1.10;;;;;;;26.00;32.03;100140.40;105195;1271;60473;-77
2022/07/30 12:34:24;;;;;;;5.70;1.40;;;;;;;26.04;32.47;100140.98;105219;1272;59835;-76
2022/07/30 12:37:14;;;;;;;5.40;1.00;;;;;;;26.06;31.79;100141.14;105162;1274;73412;-80
2022/07/30 12:40:12;;;;;;;5.40;1.10;;;;;;;26.04;32.06;100136.99;105141;1271;68111;-78
2022/07/30 12:43:03;;;;;;;5.00;1.00;;;;;;;25.92;32.03;100137.80;105236;1271;73529;-75
2022/07/30 12:46:01;;;;;;;7.30;0.90;;;;;;;25.87;32.55;100141.76;105037;1271;59747;-73
2022/07/30 12:48:57;;;;;;;4.60;1.00;;;;;;;25.81;32.79;100135.80;105232;1271;60503;-77
2022/07/30 12:51:53;;;;;;;5.40;1.10;;;;;;;25.74;33.21;100130.13;105363;1271;72958;-74
2022/07/30 12:55:11;;;;;;;6.20;1.20;;;;;;;25.76;33.59;100132.73;105140;1272;68157;-75
2022/07/30 12:58:05;;;;;;;5.40;1.10;;;;;;;25.67;33.97;100130.77;105170;1273;74437;-75
2022/07/30 13:00:55;;;;;;;4.70;0.90;;;;;;;25.56;34.10;100130.93;105050;1271;59696;-74
2022/07/30 13:03:44;;;;;;;4.10;1.00;;;;;;;25.57;34.05;100129.26;105334;1271;60893;-75
2022/07/30 13:06:32;;;;;;;5.70;0.90;;;;;;;25.63;34.08;100127.89;105043;1273;74668;-74
2022/07/30 13:09:21;;;;;;;4.20;0.90;;;;;;;25.70;34.94;100125.88;105495;1271;68121;-73
2022/07/30 13:12:13;;;;;;;5.60;1.10;;;;;;;25.63;35.36;100117.78;105092;1271;72668;-75
2022/07/30 13:15:03;;;;;;;5.70;1.00;;;;;;;25.52;36.00;100120.15;105226;1271;60119;-75
2022/07/30 13:17:51;;;;;;;4.50;0.90;;;;;;;25.38;37.76;100121.27;105011;1273;59650;-73
2022/07/30 13:20:39;;;;;;;8.50;1.40;;;;;;;25.34;37.89;100119.11;105110;1271;73209;-75
2022/07/30 13:23:28;;;;;;;6.90;1.40;;;;;;;25.35;37.49;100120.14;105199;1273;69063;-76